Etusivu
METAR-TAF:

METAR-TAF

Lentoasemat :

Kuwait, Kuwait

Kuwaitin kansainvälinen lentoasema

Leveyspiiri: 29-13N, Pituuspiiri: 047-59E, korkeus merenpinnasta: 55 m

Tämänhetkinen sää

Tämä raportti tehtiin 31 minuuttia sitten, kello 11.00 UTC
Tuuli 15 kn pohjoisen/luoteesta
Lämpötila 34°C
Kosteus 11%
Ilmanpaine 1013 hPa
Näkyvyys 10 km tai enemmän
ei pilviä alle 1500 m:ssä eikä cumulonimbus-pilviä

METAR: OKBK 191100Z 34015KT CAVOK 34/00 Q1013 NOSIG

Aika: 14:31 (11:31 UTC)

Sääennuste

Tämä raportti tehtiin 30 tuntia ja 46 minuuttia sitten, kello 04.45 UTC
Ennuste voimassa 18. päivästä klo 06 UTC - 19. päivään klo 12 UTC
Tuuli 6 kn pohjoisen/luoteesta puuskistuen 16 kn:hen
Näkyvyys: 8000 m
selkeää

TAF: OKBK 180445Z 1806/1912 34006G16KT 8000 SKC

Säähavainnot ja -ennusteet yli 4000 lentoasemalta (METAR- ja TAF-raportit).

Käytössä olevat sääasemat on merkitty karttaan keltaisilla ja punaisilla pisteillä.

Aseta hiiri pisteen päälle nähdäksesi sääaseman nimen.

Klikkaa sitten nähdäksesi säähavainnot ja -ennusteet.

Kartan vaihtaminen: klikkaa mustalla rastilla varustettuja vihreitä pisteitä, niin voit zoomata sisään; viivalla varustettua vihreää pistettä, niin voit zoomata ulos tai vihreitä nuolia, niin pääset viereisille kartoille.


METAR-TAF: